sensor_id;sensor_type;location;lat;lon;timestamp;temperature;humidity
22337;DHT22;14992;50.844;4.418;2023-06-26T00:00:19;25.00;99.90
22337;DHT22;14992;50.844;4.418;2023-06-26T00:02:49;24.90;99.90
22337;DHT22;14992;50.844;4.418;2023-06-26T00:05:18;24.80;99.90
22337;DHT22;14992;50.844;4.418;2023-06-26T00:07:47;24.80;99.90
22337;DHT22;14992;50.844;4.418;2023-06-26T00:10:16;24.70;99.90
22337;DHT22;14992;50.844;4.418;2023-06-26T00:12:45;24.60;99.90
22337;DHT22;14992;50.844;4.418;2023-06-26T00:15:14;24.50;99.90
22337;DHT22;14992;50.844;4.418;2023-06-26T00:17:44;24.50;99.90
22337;DHT22;14992;50.844;4.418;2023-06-26T00:20:13;24.40;99.90
22337;DHT22;14992;50.844;4.418;2023-06-26T00:22:44;24.30;99.90
22337;DHT22;14992;50.844;4.418;2023-06-26T00:25:14;24.30;99.90
22337;DHT22;14992;50.844;4.418;2023-06-26T00:27:43;24.20;99.90
22337;DHT22;14992;50.844;4.418;2023-06-26T00:30:12;24.10;99.90
22337;DHT22;14992;50.844;4.418;2023-06-26T00:32:41;24.00;99.90
22337;DHT22;14992;50.844;4.418;2023-06-26T00:35:12;23.90;99.90
22337;DHT22;14992;50.844;4.418;2023-06-26T00:37:41;23.80;99.90
22337;DHT22;14992;50.844;4.418;2023-06-26T00:40:10;23.80;99.90
22337;DHT22;14992;50.844;4.418;2023-06-26T00:42:40;23.80;99.90
22337;DHT22;14992;50.844;4.418;2023-06-26T00:45:09;23.80;99.90
22337;DHT22;14992;50.844;4.418;2023-06-26T00:47:39;23.70;99.90
22337;DHT22;14992;50.844;4.418;2023-06-26T00:50:08;23.60;99.90
22337;DHT22;14992;50.844;4.418;2023-06-26T00:52:41;23.50;99.90
22337;DHT22;14992;50.844;4.418;2023-06-26T00:55:10;23.40;99.90
22337;DHT22;14992;50.844;4.418;2023-06-26T00:57:40;23.30;99.90
22337;DHT22;14992;50.844;4.418;2023-06-26T01:00:10;23.20;99.90
22337;DHT22;14992;50.844;4.418;2023-06-26T01:02:40;23.10;99.90
22337;DHT22;14992;50.844;4.418;2023-06-26T01:05:10;23.10;99.90
22337;DHT22;14992;50.844;4.418;2023-06-26T01:07:42;23.10;99.90
22337;DHT22;14992;50.844;4.418;2023-06-26T01:10:11;23.00;99.90
22337;DHT22;14992;50.844;4.418;2023-06-26T01:12:42;22.90;99.90
22337;DHT22;14992;50.844;4.418;2023-06-26T01:15:12;22.80;99.90
22337;DHT22;14992;50.844;4.418;2023-06-26T01:17:42;22.70;99.90
22337;DHT22;14992;50.844;4.418;2023-06-26T01:20:13;22.70;99.90
22337;DHT22;14992;50.844;4.418;2023-06-26T01:22:48;22.60;99.90
22337;DHT22;14992;50.844;4.418;2023-06-26T01:25:31;22.60;99.90
22337;DHT22;14992;50.844;4.418;2023-06-26T01:28:08;22.50;99.90
22337;DHT22;14992;50.844;4.418;2023-06-26T01:30:42;22.50;99.90
22337;DHT22;14992;50.844;4.418;2023-06-26T01:33:12;22.60;99.90
22337;DHT22;14992;50.844;4.418;2023-06-26T01:35:41;22.60;99.90
22337;DHT22;14992;50.844;4.418;2023-06-26T01:38:14;22.50;99.90
22337;DHT22;14992;50.844;4.418;2023-06-26T01:40:44;22.50;99.90
22337;DHT22;14992;50.844;4.418;2023-06-26T01:43:20;22.50;99.90
22337;DHT22;14992;50.844;4.418;2023-06-26T01:45:55;22.40;99.90
22337;DHT22;14992;50.844;4.418;2023-06-26T01:48:32;22.40;99.90
22337;DHT22;14992;50.844;4.418;2023-06-26T01:51:04;22.30;99.90
22337;DHT22;14992;50.844;4.418;2023-06-26T01:53:40;22.30;99.90
22337;DHT22;14992;50.844;4.418;2023-06-26T01:56:13;22.40;99.90
22337;DHT22;14992;50.844;4.418;2023-06-26T01:58:46;22.40;99.90
22337;DHT22;14992;50.844;4.418;2023-06-26T02:01:15;22.30;99.90
22337;DHT22;14992;50.844;4.418;2023-06-26T02:03:44;22.30;99.90
22337;DHT22;14992;50.844;4.418;2023-06-26T02:06:14;22.30;99.90
22337;DHT22;14992;50.844;4.418;2023-06-26T02:08:43;22.20;99.90
22337;DHT22;14992;50.844;4.418;2023-06-26T02:11:12;22.20;99.90
22337;DHT22;14992;50.844;4.418;2023-06-26T02:13:41;22.10;99.90
22337;DHT22;14992;50.844;4.418;2023-06-26T02:16:11;22.10;99.90
22337;DHT22;14992;50.844;4.418;2023-06-26T02:18:42;21.90;99.90
22337;DHT22;14992;50.844;4.418;2023-06-26T02:21:11;21.90;99.90
22337;DHT22;14992;50.844;4.418;2023-06-26T02:23:40;21.90;99.90
22337;DHT22;14992;50.844;4.418;2023-06-26T02:26:09;21.90;99.90
22337;DHT22;14992;50.844;4.418;2023-06-26T02:28:38;21.90;99.90
22337;DHT22;14992;50.844;4.418;2023-06-26T02:31:07;21.90;99.90
22337;DHT22;14992;50.844;4.418;2023-06-26T02:33:37;21.80;99.90
22337;DHT22;14992;50.844;4.418;2023-06-26T02:36:06;21.80;99.90
22337;DHT22;14992;50.844;4.418;2023-06-26T02:38:35;21.80;99.90
22337;DHT22;14992;50.844;4.418;2023-06-26T02:41:04;21.70;99.90
22337;DHT22;14992;50.844;4.418;2023-06-26T02:43:33;21.70;99.90
22337;DHT22;14992;50.844;4.418;2023-06-26T02:46:02;21.60;99.90
22337;DHT22;14992;50.844;4.418;2023-06-26T02:48:31;21.60;99.90
22337;DHT22;14992;50.844;4.418;2023-06-26T02:51:02;21.70;99.90
22337;DHT22;14992;50.844;4.418;2023-06-26T02:53:32;21.70;99.90
22337;DHT22;14992;50.844;4.418;2023-06-26T02:56:01;21.60;99.90
22337;DHT22;14992;50.844;4.418;2023-06-26T02:58:30;21.50;99.90
22337;DHT22;14992;50.844;4.418;2023-06-26T03:00:59;21.50;99.90
22337;DHT22;14992;50.844;4.418;2023-06-26T03:03:28;21.50;99.90
22337;DHT22;14992;50.844;4.418;2023-06-26T03:05:57;21.40;99.90
22337;DHT22;14992;50.844;4.418;2023-06-26T03:08:28;21.40;99.90
22337;DHT22;14992;50.844;4.418;2023-06-26T03:10:58;21.40;99.90
22337;DHT22;14992;50.844;4.418;2023-06-26T03:13:27;21.30;99.90
22337;DHT22;14992;50.844;4.418;2023-06-26T03:15:56;21.20;99.90
22337;DHT22;14992;50.844;4.418;2023-06-26T03:18:25;21.20;99.90
22337;DHT22;14992;50.844;4.418;2023-06-26T03:20:55;21.10;99.90
22337;DHT22;14992;50.844;4.418;2023-06-26T03:23:25;21.10;99.90
22337;DHT22;14992;50.844;4.418;2023-06-26T03:25:55;21.10;99.90
22337;DHT22;14992;50.844;4.418;2023-06-26T03:28:29;21.00;99.90
22337;DHT22;14992;50.844;4.418;2023-06-26T03:31:00;20.90;99.90
22337;DHT22;14992;50.844;4.418;2023-06-26T03:33:30;20.90;99.90
22337;DHT22;14992;50.844;4.418;2023-06-26T03:35:59;20.80;99.90
22337;DHT22;14992;50.844;4.418;2023-06-26T03:38:28;20.80;99.90
22337;DHT22;14992;50.844;4.418;2023-06-26T03:41:00;20.70;99.90
22337;DHT22;14992;50.844;4.418;2023-06-26T03:43:29;20.70;99.90
22337;DHT22;14992;50.844;4.418;2023-06-26T03:46:13;20.70;99.90
22337;DHT22;14992;50.844;4.418;2023-06-26T03:48:42;20.70;99.90
22337;DHT22;14992;50.844;4.418;2023-06-26T03:51:11;20.60;99.90
22337;DHT22;14992;50.844;4.418;2023-06-26T03:53:40;20.50;99.90
22337;DHT22;14992;50.844;4.418;2023-06-26T03:56:11;20.50;99.90
22337;DHT22;14992;50.844;4.418;2023-06-26T03:58:42;20.50;99.90
22337;DHT22;14992;50.844;4.418;2023-06-26T04:01:11;20.50;99.90
22337;DHT22;14992;50.844;4.418;2023-06-26T04:03:40;20.60;99.90
22337;DHT22;14992;50.844;4.418;2023-06-26T04:06:11;20.50;99.90
22337;DHT22;14992;50.844;4.418;2023-06-26T04:08:40;20.50;99.90
22337;DHT22;14992;50.844;4.418;2023-06-26T04:11:10;20.60;99.90
22337;DHT22;14992;50.844;4.418;2023-06-26T04:13:39;20.60;99.90
22337;DHT22;14992;50.844;4.418;2023-06-26T04:16:08;20.70;99.90
22337;DHT22;14992;50.844;4.418;2023-06-26T04:18:39;20.70;99.90
22337;DHT22;14992;50.844;4.418;2023-06-26T04:21:08;20.70;99.90
22337;DHT22;14992;50.844;4.418;2023-06-26T04:23:40;20.70;99.90
22337;DHT22;14992;50.844;4.418;2023-06-26T04:26:10;20.70;99.90
22337;DHT22;14992;50.844;4.418;2023-06-26T04:28:41;20.70;99.90
22337;DHT22;14992;50.844;4.418;2023-06-26T04:31:10;20.70;99.90
22337;DHT22;14992;50.844;4.418;2023-06-26T04:33:39;20.70;99.90
22337;DHT22;14992;50.844;4.418;2023-06-26T04:36:10;20.70;99.90
22337;DHT22;14992;50.844;4.418;2023-06-26T04:38:39;20.70;99.90
22337;DHT22;14992;50.844;4.418;2023-06-26T04:41:08;20.70;99.90
22337;DHT22;14992;50.844;4.418;2023-06-26T04:43:38;20.70;99.90
22337;DHT22;14992;50.844;4.418;2023-06-26T04:46:07;20.70;99.90
22337;DHT22;14992;50.844;4.418;2023-06-26T04:48:36;20.70;99.90
22337;DHT22;14992;50.844;4.418;2023-06-26T04:51:05;20.60;99.90
22337;DHT22;14992;50.844;4.418;2023-06-26T04:53:34;20.60;99.90
22337;DHT22;14992;50.844;4.418;2023-06-26T04:56:03;20.50;99.90
22337;DHT22;14992;50.844;4.418;2023-06-26T04:58:32;20.50;99.90
22337;DHT22;14992;50.844;4.418;2023-06-26T05:01:02;20.40;99.90
22337;DHT22;14992;50.844;4.418;2023-06-26T05:03:34;20.50;99.90
22337;DHT22;14992;50.844;4.418;2023-06-26T05:06:04;20.60;99.90
22337;DHT22;14992;50.844;4.418;2023-06-26T05:08:36;20.50;99.90
22337;DHT22;14992;50.844;4.418;2023-06-26T05:11:05;20.60;99.90
22337;DHT22;14992;50.844;4.418;2023-06-26T05:13:35;20.60;99.90
22337;DHT22;14992;50.844;4.418;2023-06-26T05:16:08;20.60;99.90
22337;DHT22;14992;50.844;4.418;2023-06-26T05:18:37;20.60;99.90
22337;DHT22;14992;50.844;4.418;2023-06-26T05:21:07;20.50;99.90
22337;DHT22;14992;50.844;4.418;2023-06-26T05:23:36;20.60;99.90
22337;DHT22;14992;50.844;4.418;2023-06-26T05:26:05;20.60;99.90
22337;DHT22;14992;50.844;4.418;2023-06-26T05:28:35;20.40;99.90
22337;DHT22;14992;50.844;4.418;2023-06-26T05:31:06;20.40;99.90
22337;DHT22;14992;50.844;4.418;2023-06-26T05:33:36;20.40;99.90
22337;DHT22;14992;50.844;4.418;2023-06-26T05:36:07;20.40;99.90
22337;DHT22;14992;50.844;4.418;2023-06-26T05:38:37;20.40;99.90
22337;DHT22;14992;50.844;4.418;2023-06-26T05:41:06;20.40;99.90
22337;DHT22;14992;50.844;4.418;2023-06-26T05:43:35;20.30;99.90
22337;DHT22;14992;50.844;4.418;2023-06-26T05:46:06;20.30;99.90
22337;DHT22;14992;50.844;4.418;2023-06-26T05:48:35;20.40;99.90
22337;DHT22;14992;50.844;4.418;2023-06-26T05:51:05;20.50;99.90
22337;DHT22;14992;50.844;4.418;2023-06-26T05:53:34;20.50;99.90
22337;DHT22;14992;50.844;4.418;2023-06-26T05:56:04;20.60;99.90
22337;DHT22;14992;50.844;4.418;2023-06-26T05:58:33;20.60;99.90
22337;DHT22;14992;50.844;4.418;2023-06-26T06:01:03;20.50;99.90
22337;DHT22;14992;50.844;4.418;2023-06-26T06:03:35;20.50;99.90
22337;DHT22;14992;50.844;4.418;2023-06-26T06:06:05;20.40;99.90
22337;DHT22;14992;50.844;4.418;2023-06-26T06:08:34;20.40;99.90
22337;DHT22;14992;50.844;4.418;2023-06-26T06:11:05;20.30;99.90
22337;DHT22;14992;50.844;4.418;2023-06-26T06:13:35;20.40;99.90
22337;DHT22;14992;50.844;4.418;2023-06-26T06:16:04;20.50;99.90
22337;DHT22;14992;50.844;4.418;2023-06-26T06:18:34;20.60;99.90
22337;DHT22;14992;50.844;4.418;2023-06-26T06:21:03;20.60;99.90
22337;DHT22;14992;50.844;4.418;2023-06-26T06:23:32;20.60;99.90
22337;DHT22;14992;50.844;4.418;2023-06-26T06:26:01;20.60;99.90
22337;DHT22;14992;50.844;4.418;2023-06-26T06:28:30;20.50;99.90
22337;DHT22;14992;50.844;4.418;2023-06-26T06:30:59;20.50;99.90
22337;DHT22;14992;50.844;4.418;2023-06-26T06:33:27;20.50;99.90
22337;DHT22;14992;50.844;4.418;2023-06-26T06:35:58;20.60;99.90
22337;DHT22;14992;50.844;4.418;2023-06-26T06:38:27;20.60;99.90
22337;DHT22;14992;50.844;4.418;2023-06-26T06:40:56;20.70;99.90
22337;DHT22;14992;50.844;4.418;2023-06-26T06:43:25;20.80;99.90
22337;DHT22;14992;50.844;4.418;2023-06-26T06:45:56;20.80;99.90
22337;DHT22;14992;50.844;4.418;2023-06-26T06:48:25;20.70;99.90
22337;DHT22;14992;50.844;4.418;2023-06-26T06:50:54;20.70;99.90
22337;DHT22;14992;50.844;4.418;2023-06-26T06:53:24;20.70;99.90
22337;DHT22;14992;50.844;4.418;2023-06-26T06:55:53;20.80;99.90
22337;DHT22;14992;50.844;4.418;2023-06-26T06:58:22;20.80;99.90
22337;DHT22;14992;50.844;4.418;2023-06-26T07:00:51;20.90;99.90
22337;DHT22;14992;50.844;4.418;2023-06-26T07:03:20;20.90;99.90
22337;DHT22;14992;50.844;4.418;2023-06-26T07:05:50;21.00;99.90
22337;DHT22;14992;50.844;4.418;2023-06-26T07:08:19;21.00;99.90
22337;DHT22;14992;50.844;4.418;2023-06-26T07:10:49;21.10;99.90
22337;DHT22;14992;50.844;4.418;2023-06-26T07:13:18;21.00;99.90
22337;DHT22;14992;50.844;4.418;2023-06-26T07:15:47;21.10;99.90
22337;DHT22;14992;50.844;4.418;2023-06-26T07:18:17;21.00;99.90
22337;DHT22;14992;50.844;4.418;2023-06-26T07:20:46;21.00;99.90
22337;DHT22;14992;50.844;4.418;2023-06-26T07:23:15;21.20;99.90
22337;DHT22;14992;50.844;4.418;2023-06-26T07:25:44;21.20;99.90
22337;DHT22;14992;50.844;4.418;2023-06-26T07:28:15;21.30;99.90
22337;DHT22;14992;50.844;4.418;2023-06-26T07:30:44;21.40;99.90
22337;DHT22;14992;50.844;4.418;2023-06-26T07:33:13;21.60;99.90
22337;DHT22;14992;50.844;4.418;2023-06-26T07:35:42;21.50;99.90
22337;DHT22;14992;50.844;4.418;2023-06-26T07:38:10;21.70;99.90
22337;DHT22;14992;50.844;4.418;2023-06-26T07:40:39;21.60;99.90
22337;DHT22;14992;50.844;4.418;2023-06-26T07:43:08;21.70;99.90
22337;DHT22;14992;50.844;4.418;2023-06-26T07:45:39;21.90;99.90
22337;DHT22;14992;50.844;4.418;2023-06-26T07:48:08;22.00;99.90
22337;DHT22;14992;50.844;4.418;2023-06-26T07:50:37;21.80;99.90
22337;DHT22;14992;50.844;4.418;2023-06-26T07:53:08;21.80;99.90
22337;DHT22;14992;50.844;4.418;2023-06-26T07:55:37;21.70;99.90
22337;DHT22;14992;50.844;4.418;2023-06-26T07:58:08;21.90;99.90
22337;DHT22;14992;50.844;4.418;2023-06-26T08:00:40;21.90;99.90
22337;DHT22;14992;50.844;4.418;2023-06-26T08:03:09;21.70;99.90
22337;DHT22;14992;50.844;4.418;2023-06-26T08:05:48;21.70;99.90
22337;DHT22;14992;50.844;4.418;2023-06-26T08:08:17;21.60;99.90
22337;DHT22;14992;50.844;4.418;2023-06-26T08:10:46;21.60;99.90
22337;DHT22;14992;50.844;4.418;2023-06-26T08:13:14;21.80;99.90
22337;DHT22;14992;50.844;4.418;2023-06-26T08:15:46;21.70;99.90
22337;DHT22;14992;50.844;4.418;2023-06-26T08:18:15;21.80;99.90
22337;DHT22;14992;50.844;4.418;2023-06-26T08:20:44;21.70;99.90
22337;DHT22;14992;50.844;4.418;2023-06-26T08:23:13;21.80;99.90
22337;DHT22;14992;50.844;4.418;2023-06-26T08:25:42;21.90;99.90
22337;DHT22;14992;50.844;4.418;2023-06-26T08:28:11;22.10;99.90
22337;DHT22;14992;50.844;4.418;2023-06-26T08:30:40;22.10;99.90
22337;DHT22;14992;50.844;4.418;2023-06-26T08:33:11;22.30;99.90
22337;DHT22;14992;50.844;4.418;2023-06-26T08:35:40;22.40;99.90
22337;DHT22;14992;50.844;4.418;2023-06-26T08:38:08;22.30;99.90
22337;DHT22;14992;50.844;4.418;2023-06-26T08:40:38;22.50;99.90
22337;DHT22;14992;50.844;4.418;2023-06-26T08:43:07;22.60;99.90
22337;DHT22;14992;50.844;4.418;2023-06-26T08:45:36;22.60;99.90
22337;DHT22;14992;50.844;4.418;2023-06-26T08:48:08;22.50;99.90
22337;DHT22;14992;50.844;4.418;2023-06-26T08:50:39;22.60;99.90
22337;DHT22;14992;50.844;4.418;2023-06-26T08:53:13;22.60;99.90
22337;DHT22;14992;50.844;4.418;2023-06-26T08:55:43;22.80;99.90
22337;DHT22;14992;50.844;4.418;2023-06-26T08:58:12;22.80;99.90
22337;DHT22;14992;50.844;4.418;2023-06-26T09:00:42;22.90;99.90
22337;DHT22;14992;50.844;4.418;2023-06-26T09:03:14;22.90;99.90
22337;DHT22;14992;50.844;4.418;2023-06-26T09:05:44;22.90;99.90
22337;DHT22;14992;50.844;4.418;2023-06-26T09:08:13;22.90;99.90
22337;DHT22;14992;50.844;4.418;2023-06-26T09:10:43;22.90;99.90
22337;DHT22;14992;50.844;4.418;2023-06-26T09:13:13;23.10;99.90
22337;DHT22;14992;50.844;4.418;2023-06-26T09:15:56;23.10;99.90
22337;DHT22;14992;50.844;4.418;2023-06-26T09:18:25;23.30;99.90
22337;DHT22;14992;50.844;4.418;2023-06-26T09:20:56;23.50;99.90
22337;DHT22;14992;50.844;4.418;2023-06-26T09:23:25;23.60;99.90
22337;DHT22;14992;50.844;4.418;2023-06-26T09:25:55;23.60;99.90
22337;DHT22;14992;50.844;4.418;2023-06-26T09:28:24;23.50;99.90
22337;DHT22;14992;50.844;4.418;2023-06-26T09:30:54;23.30;99.90
22337;DHT22;14992;50.844;4.418;2023-06-26T09:33:23;23.50;99.90
22337;DHT22;14992;50.844;4.418;2023-06-26T09:35:52;23.60;99.90
22337;DHT22;14992;50.844;4.418;2023-06-26T09:38:22;23.60;99.70
22337;DHT22;14992;50.844;4.418;2023-06-26T09:40:51;23.50;99.30
22337;DHT22;14992;50.844;4.418;2023-06-26T09:43:20;23.50;98.40
22337;DHT22;14992;50.844;4.418;2023-06-26T09:45:49;23.40;98.60
22337;DHT22;14992;50.844;4.418;2023-06-26T09:48:19;23.60;98.30
22337;DHT22;14992;50.844;4.418;2023-06-26T09:50:48;23.70;96.80
22337;DHT22;14992;50.844;4.418;2023-06-26T09:53:39;23.70;95.80
22337;DHT22;14992;50.844;4.418;2023-06-26T09:56:15;23.80;95.00
22337;DHT22;14992;50.844;4.418;2023-06-26T09:58:46;24.00;94.40
22337;DHT22;14992;50.844;4.418;2023-06-26T10:01:16;24.10;95.10
22337;DHT22;14992;50.844;4.418;2023-06-26T10:03:46;24.30;94.50
22337;DHT22;14992;50.844;4.418;2023-06-26T10:06:19;24.40;95.00
22337;DHT22;14992;50.844;4.418;2023-06-26T10:08:50;24.50;94.40
22337;DHT22;14992;50.844;4.418;2023-06-26T10:11:23;24.50;93.40
22337;DHT22;14992;50.844;4.418;2023-06-26T10:13:55;24.40;94.90
22337;DHT22;14992;50.844;4.418;2023-06-26T10:16:43;24.60;94.20
22337;DHT22;14992;50.844;4.418;2023-06-26T10:19:14;24.70;93.10
22337;DHT22;14992;50.844;4.418;2023-06-26T10:21:43;24.90;91.20
22337;DHT22;14992;50.844;4.418;2023-06-26T10:24:14;25.00;90.80
22337;DHT22;14992;50.844;4.418;2023-06-26T10:26:45;25.00;88.80
22337;DHT22;14992;50.844;4.418;2023-06-26T10:29:16;24.90;87.80
22337;DHT22;14992;50.844;4.418;2023-06-26T10:31:51;24.50;88.20
22337;DHT22;14992;50.844;4.418;2023-06-26T10:34:21;24.40;89.70
22337;DHT22;14992;50.844;4.418;2023-06-26T10:36:59;24.60;87.50
22337;DHT22;14992;50.844;4.418;2023-06-26T10:39:46;24.50;89.70
22337;DHT22;14992;50.844;4.418;2023-06-26T10:42:16;24.50;90.20
22337;DHT22;14992;50.844;4.418;2023-06-26T10:44:47;24.60;89.10
22337;DHT22;14992;50.844;4.418;2023-06-26T10:47:37;24.60;87.20
22337;DHT22;14992;50.844;4.418;2023-06-26T10:50:27;24.70;86.50
22337;DHT22;14992;50.844;4.418;2023-06-26T10:53:15;24.80;87.00
22337;DHT22;14992;50.844;4.418;2023-06-26T10:55:55;24.90;87.30
22337;DHT22;14992;50.844;4.418;2023-06-26T10:58:31;24.80;86.60
22337;DHT22;14992;50.844;4.418;2023-06-26T11:01:21;24.70;86.50
22337;DHT22;14992;50.844;4.418;2023-06-26T11:04:04;24.60;88.50
22337;DHT22;14992;50.844;4.418;2023-06-26T11:06:34;24.80;86.30
22337;DHT22;14992;50.844;4.418;2023-06-26T11:09:10;24.80;84.40
22337;DHT22;14992;50.844;4.418;2023-06-26T11:11:58;24.80;84.40
22337;DHT22;14992;50.844;4.418;2023-06-26T11:14:32;25.00;84.60
22337;DHT22;14992;50.844;4.418;2023-06-26T11:17:05;25.00;85.70
22337;DHT22;14992;50.844;4.418;2023-06-26T11:19:34;25.10;85.70
22337;DHT22;14992;50.844;4.418;2023-06-26T11:22:03;24.90;87.10
22337;DHT22;14992;50.844;4.418;2023-06-26T11:24:33;24.60;88.30
22337;DHT22;14992;50.844;4.418;2023-06-26T11:27:04;24.40;90.10
22337;DHT22;14992;50.844;4.418;2023-06-26T11:29:33;24.40;90.30
22337;DHT22;14992;50.844;4.418;2023-06-26T11:32:04;24.40;90.80
22337;DHT22;14992;50.844;4.418;2023-06-26T11:34:34;24.30;90.80
22337;DHT22;14992;50.844;4.418;2023-06-26T11:37:05;24.30;90.30
22337;DHT22;14992;50.844;4.418;2023-06-26T11:39:35;24.20;90.70
22337;DHT22;14992;50.844;4.418;2023-06-26T11:42:07;24.00;91.00
22337;DHT22;14992;50.844;4.418;2023-06-26T11:44:40;24.00;91.00
22337;DHT22;14992;50.844;4.418;2023-06-26T11:47:15;24.00;91.20
22337;DHT22;14992;50.844;4.418;2023-06-26T11:49:44;24.10;90.20
22337;DHT22;14992;50.844;4.418;2023-06-26T11:52:14;24.10;89.20
22337;DHT22;14992;50.844;4.418;2023-06-26T11:54:47;24.30;85.20
22337;DHT22;14992;50.844;4.418;2023-06-26T11:57:18;24.50;83.80
22337;DHT22;14992;50.844;4.418;2023-06-26T11:59:50;24.50;83.60
22337;DHT22;14992;50.844;4.418;2023-06-26T12:02:21;24.40;84.60
22337;DHT22;14992;50.844;4.418;2023-06-26T12:04:52;24.20;82.50
22337;DHT22;14992;50.844;4.418;2023-06-26T12:07:22;24.40;81.60
22337;DHT22;14992;50.844;4.418;2023-06-26T12:09:52;24.60;79.60
22337;DHT22;14992;50.844;4.418;2023-06-26T12:12:24;24.80;80.20
22337;DHT22;14992;50.844;4.418;2023-06-26T12:14:54;25.00;77.90
22337;DHT22;14992;50.844;4.418;2023-06-26T12:17:23;25.00;76.80
22337;DHT22;14992;50.844;4.418;2023-06-26T12:19:52;25.10;74.20
22337;DHT22;14992;50.844;4.418;2023-06-26T12:22:21;25.20;71.60
22337;DHT22;14992;50.844;4.418;2023-06-26T12:24:50;25.30;71.40
22337;DHT22;14992;50.844;4.418;2023-06-26T12:27:19;25.50;72.20
22337;DHT22;14992;50.844;4.418;2023-06-26T12:29:52;25.20;71.20
22337;DHT22;14992;50.844;4.418;2023-06-26T12:32:23;25.10;72.60
22337;DHT22;14992;50.844;4.418;2023-06-26T12:34:56;25.20;72.40
22337;DHT22;14992;50.844;4.418;2023-06-26T12:37:25;25.20;69.40
22337;DHT22;14992;50.844;4.418;2023-06-26T12:39:56;25.20;67.50
22337;DHT22;14992;50.844;4.418;2023-06-26T12:42:26;25.20;67.10
22337;DHT22;14992;50.844;4.418;2023-06-26T12:44:57;25.20;68.60
22337;DHT22;14992;50.844;4.418;2023-06-26T12:47:27;25.40;70.60
22337;DHT22;14992;50.844;4.418;2023-06-26T12:49:58;25.40;70.10
22337;DHT22;14992;50.844;4.418;2023-06-26T12:52:34;25.30;71.80
22337;DHT22;14992;50.844;4.418;2023-06-26T12:55:04;25.40;71.20
22337;DHT22;14992;50.844;4.418;2023-06-26T12:57:34;25.50;72.30
22337;DHT22;14992;50.844;4.418;2023-06-26T13:00:07;25.50;73.00
22337;DHT22;14992;50.844;4.418;2023-06-26T13:02:38;25.40;73.40
22337;DHT22;14992;50.844;4.418;2023-06-26T13:05:08;25.30;73.70
22337;DHT22;14992;50.844;4.418;2023-06-26T13:07:38;25.30;72.30
22337;DHT22;14992;50.844;4.418;2023-06-26T13:10:08;25.20;73.30
22337;DHT22;14992;50.844;4.418;2023-06-26T13:12:37;25.10;73.40
22337;DHT22;14992;50.844;4.418;2023-06-26T13:15:10;25.20;75.00
22337;DHT22;14992;50.844;4.418;2023-06-26T13:17:39;25.30;72.30
22337;DHT22;14992;50.844;4.418;2023-06-26T13:20:10;25.30;72.90
22337;DHT22;14992;50.844;4.418;2023-06-26T13:22:42;25.40;73.00
22337;DHT22;14992;50.844;4.418;2023-06-26T13:25:11;25.50;73.30
22337;DHT22;14992;50.844;4.418;2023-06-26T13:27:42;25.80;73.40
22337;DHT22;14992;50.844;4.418;2023-06-26T13:30:13;26.00;72.70
22337;DHT22;14992;50.844;4.418;2023-06-26T13:32:45;25.90;72.90
22337;DHT22;14992;50.844;4.418;2023-06-26T13:35:15;25.70;73.50
22337;DHT22;14992;50.844;4.418;2023-06-26T13:37:46;25.70;73.00
22337;DHT22;14992;50.844;4.418;2023-06-26T13:40:16;25.50;71.50
22337;DHT22;14992;50.844;4.418;2023-06-26T13:42:46;25.40;72.20
22337;DHT22;14992;50.844;4.418;2023-06-26T13:45:17;25.50;72.40
22337;DHT22;14992;50.844;4.418;2023-06-26T13:47:52;25.70;71.80
22337;DHT22;14992;50.844;4.418;2023-06-26T13:50:21;25.80;72.60
22337;DHT22;14992;50.844;4.418;2023-06-26T13:52:50;26.10;72.60
22337;DHT22;14992;50.844;4.418;2023-06-26T13:55:21;26.10;72.30
22337;DHT22;14992;50.844;4.418;2023-06-26T13:57:56;26.00;72.40
22337;DHT22;14992;50.844;4.418;2023-06-26T14:00:28;25.70;73.00
22337;DHT22;14992;50.844;4.418;2023-06-26T14:02:58;25.70;73.80
22337;DHT22;14992;50.844;4.418;2023-06-26T14:05:28;25.70;73.80
22337;DHT22;14992;50.844;4.418;2023-06-26T14:08:04;25.80;69.80
22337;DHT22;14992;50.844;4.418;2023-06-26T14:10:34;25.60;69.40
22337;DHT22;14992;50.844;4.418;2023-06-26T14:13:04;25.40;69.90
22337;DHT22;14992;50.844;4.418;2023-06-26T14:15:35;25.70;69.00
22337;DHT22;14992;50.844;4.418;2023-06-26T14:18:04;25.90;66.90
22337;DHT22;14992;50.844;4.418;2023-06-26T14:20:34;25.90;65.60
22337;DHT22;14992;50.844;4.418;2023-06-26T14:23:06;25.90;63.90
22337;DHT22;14992;50.844;4.418;2023-06-26T14:25:35;26.00;62.10
22337;DHT22;14992;50.844;4.418;2023-06-26T14:28:04;26.30;63.20
22337;DHT22;14992;50.844;4.418;2023-06-26T14:30:34;26.30;60.40
22337;DHT22;14992;50.844;4.418;2023-06-26T14:33:03;26.20;59.20
22337;DHT22;14992;50.844;4.418;2023-06-26T14:35:32;26.30;63.70
22337;DHT22;14992;50.844;4.418;2023-06-26T14:38:03;26.20;65.60
22337;DHT22;14992;50.844;4.418;2023-06-26T14:40:32;26.20;65.50
22337;DHT22;14992;50.844;4.418;2023-06-26T14:43:01;26.00;64.90
22337;DHT22;14992;50.844;4.418;2023-06-26T14:45:31;26.00;66.40
22337;DHT22;14992;50.844;4.418;2023-06-26T14:48:02;26.00;67.30
22337;DHT22;14992;50.844;4.418;2023-06-26T14:50:31;26.10;66.30
22337;DHT22;14992;50.844;4.418;2023-06-26T14:53:00;26.30;65.60
22337;DHT22;14992;50.844;4.418;2023-06-26T14:55:30;26.40;62.80
22337;DHT22;14992;50.844;4.418;2023-06-26T14:57:59;26.40;63.40
22337;DHT22;14992;50.844;4.418;2023-06-26T15:00:27;26.60;63.50
22337;DHT22;14992;50.844;4.418;2023-06-26T15:02:56;26.40;63.80
22337;DHT22;14992;50.844;4.418;2023-06-26T15:05:28;26.40;65.70
22337;DHT22;14992;50.844;4.418;2023-06-26T15:07:57;26.10;66.00
22337;DHT22;14992;50.844;4.418;2023-06-26T15:10:26;26.10;65.60
22337;DHT22;14992;50.844;4.418;2023-06-26T15:12:57;25.90;67.30
22337;DHT22;14992;50.844;4.418;2023-06-26T15:15:27;25.60;69.20
22337;DHT22;14992;50.844;4.418;2023-06-26T15:17:56;25.70;69.70
22337;DHT22;14992;50.844;4.418;2023-06-26T15:20:26;25.60;70.50
22337;DHT22;14992;50.844;4.418;2023-06-26T15:22:56;25.60;72.00
22337;DHT22;14992;50.844;4.418;2023-06-26T15:25:28;25.60;69.90
22337;DHT22;14992;50.844;4.418;2023-06-26T15:27:59;25.50;70.50
22337;DHT22;14992;50.844;4.418;2023-06-26T15:30:29;25.50;72.50
22337;DHT22;14992;50.844;4.418;2023-06-26T15:32:58;25.40;73.40
22337;DHT22;14992;50.844;4.418;2023-06-26T15:35:27;25.50;73.90
22337;DHT22;14992;50.844;4.418;2023-06-26T15:37:57;25.70;73.10
22337;DHT22;14992;50.844;4.418;2023-06-26T15:40:27;25.90;72.30
22337;DHT22;14992;50.844;4.418;2023-06-26T15:42:56;25.90;72.10
22337;DHT22;14992;50.844;4.418;2023-06-26T15:45:25;26.20;70.60
22337;DHT22;14992;50.844;4.418;2023-06-26T15:47:56;26.00;70.10
22337;DHT22;14992;50.844;4.418;2023-06-26T15:50:28;25.80;70.30